Flight Track Log - Related Links

Times and Time Zones

All times are in EDT time to prevent confusion due to time zone crossing. See the EJA614 flight status page for this flight to view local times or setup timezone preferences in your user account.

Time Position Orientation Groundspeed Altitude Reporting Facility
EDT Latitude Longitude Course Direction KTS MPH feet Rate Location/Type
Mon 07:37:14 AM 39.4028 -74.5547 270° West 143 165 6,400  Level Washington Center
Mon 07:38:12 AM 39.3722 -74.6467 247° West 176 203 8,600 2,319 Climbing Washington Center
Mon 07:39:13 AM 39.3375 -74.7464 246° West 242 278 11,000 1,820 Climbing Washington Center
Mon 07:40:14 AM 39.2967 -74.8594 245° Southwest 324 373 12,300 2,231 Climbing Washington Center
Mon 07:41:14 AM 39.3139 -74.9825 280° West 339 390 15,500 2,186 Climbing Washington Center
Mon 07:42:00 AM 39.6333 -75.4035 270° West  Level FlightAware Approximate
Mon 07:42:12 AM 39.3792 -75.0894 308° West 323 372 16,600  Level Washington Center
Mon 07:43:13 AM 39.4442 -75.2019 307° West 359 413 17,000 197 Climbing Washington Center
Mon 07:44:14 AM 39.5089 -75.3117 307° West 377 434 17,000 655 Level Washington Center
Mon 07:45:12 AM 39.5031 -75.4383 267° West 361 415 18,300 1,513 Climbing Washington Center
Mon 07:46:13 AM 39.4428 -75.5567 237° Southwest 339 390 20,000 1,339 Climbing Washington Center
Mon 07:47:13 AM 39.3822 -75.6775 237° Southwest 369 425 21,000 872 Climbing Washington Center
Mon 07:49:12 AM 39.3067 -75.9456 250° West 398 458 22,600 967 Climbing Washington Center
Mon 07:50:13 AM 39.2708 -76.0822 251° West 398 458 23,900 689 Climbing Washington Center
Mon 07:51:14 AM 39.2431 -76.2456 258° West 411 473 24,000 50 Climbing Washington Center
Mon 07:52:14 AM 39.2233 -76.3953 260° West 425 489 24,000 150 Level Washington Center
Mon 07:53:14 AM 39.2100 -76.5264 263° West 409 471 24,300 843 Climbing Washington Center
Mon 07:54:15 AM 39.1919 -76.6628 260° West 395 455 25,700 1,750 Climbing Washington Center
Mon 07:56:00 AM 39.1568 -76.8756 258° West  Level FlightAware Approximate
Mon 07:57:14 AM 39.1375 -77.0847 258° West 395 455 31,300  Level Washington Center
Mon 07:58:12 AM 39.1211 -77.2208 261° West 395 455 33,300 1,247 Climbing Washington Center
Mon 08:00:12 AM 39.0839 -77.5008 260° West 395 455 35,000 564 Climbing Washington Center
Mon 08:01:13 AM 39.0625 -77.6472 259° West 410 472 35,000 246 Level Washington Center
Mon 08:02:14 AM 39.0456 -77.7806 261° West 415 478 35,500 893 Climbing Washington Center
Mon 08:03:14 AM 39.0242 -77.9294 260° West 423 487 36,800 1,240 Climbing Washington Center
Mon 08:04:15 AM 39.0044 -78.0731 260° West 428 493 38,000 600 Climbing Washington Center
Mon 08:05:14 AM 38.9850 -78.2061 259° West 407 468 38,000  Level Washington Center
Mon 08:06:14 AM 38.9675 -78.3361 260° West 389 448 38,000  Level Washington Center
Mon 08:07:14 AM 38.9500 -78.4636 260° West 377 434 38,000  Level Washington Center
Mon 08:08:14 AM 38.9300 -78.5992 259° West 377 434 38,000  Level Washington Center
Mon 08:09:12 AM 38.9100 -78.7317 259° West 377 434 38,000  Level Washington Center
Mon 08:10:12 AM 38.8919 -78.8617 260° West 377 434 38,000  Level Washington Center
Mon 08:11:13 AM 38.8656 -78.9883 255° West 377 434 38,000  Level Washington Center
Mon 08:12:14 AM 38.8408 -79.1150 256° West 372 428 38,000  Level Washington Center
Mon 08:13:13 AM 38.8144 -79.2364 254° West 372 428 38,000  Level Washington Center
Mon 08:14:13 AM 38.7875 -79.3656 255° West 372 428 38,000  Level Washington Center
Mon 08:15:14 AM 38.7578 -79.5106 255° West 377 434 38,000  Level Washington Center
Mon 08:16:14 AM 38.7306 -79.6394 255° West 377 434 38,000  Level Washington Center
Mon 08:17:15 AM 38.7058 -79.7553 255° West 377 434 38,000  Level Washington Center
Mon 08:18:12 AM 38.6761 -79.8864 254° West 377 434 38,000  Level Washington Center
Mon 08:19:14 AM 38.6486 -80.0125 254° West 377 434 38,000  Level Washington Center
Mon 08:21:00 AM 38.6186 -80.1356 253° West  Level FlightAware Approximate
Mon 08:22:02 AM 38.5669 -80.3694 253° West 367 422 38,000  Level Indianapolis Center
Mon 08:23:04 AM 38.5367 -80.5097 255° West 371 427 38,000  Level Indianapolis Center
Mon 08:24:05 AM 38.5083 -80.6356 254° West 369 425 38,000  Level Indianapolis Center
Mon 08:25:07 AM 38.4797 -80.7625 254° West 370 426 38,000  Level Indianapolis Center
Mon 08:27:10 AM 38.4214 -81.0142 254° West 369 425 38,000  Level Indianapolis Center
Mon 08:29:13 AM 38.3836 -81.2756 260° West 377 434 38,000  Level Indianapolis Center
Mon 08:30:14 AM 38.3803 -81.4131 268° West 384 442 38,000  Level Indianapolis Center
Mon 08:31:16 AM 38.3581 -81.5431 258° West 374 430 38,000  Level Indianapolis Center
Mon 08:32:18 AM 38.3250 -81.6658 251° West 365 420 38,000  Level Indianapolis Center
Mon 08:33:19 AM 38.2933 -81.7914 252° West 369 425 38,000  Level Indianapolis Center
Mon 08:34:21 AM 38.2611 -81.9156 252° West 369 425 38,000  Level Indianapolis Center
Mon 08:36:00 AM 38.2072 -82.1096 251° West  Level FlightAware Approximate
Mon 08:37:25 AM 38.1589 -82.3086 251° West 366 421 38,000  Level Indianapolis Center
Mon 08:38:27 AM 38.1253 -82.4322 251° West 369 425 38,000  Level Indianapolis Center
Mon 08:39:28 AM 38.0928 -82.5542 251° West 372 428 38,000  Level Indianapolis Center
Mon 08:41:00 AM 38.0382 -82.7320 249° West  Level FlightAware Approximate
Mon 08:41:31 AM 38.0208 -82.8269 249° West 378 435 38,000  Level Indianapolis Center
Mon 08:42:33 AM 37.9861 -82.9514 251° West 376 433 38,000  Level Indianapolis Center
Mon 08:43:34 AM 37.9525 -83.0786 252° West 379 436 38,000  Level Indianapolis Center
Mon 08:44:36 AM 37.9189 -83.2042 251° West 379 436 38,000 -551 Level Indianapolis Center
Mon 08:46:00 AM 37.8728 -83.3687 251° West  Level FlightAware Approximate
Mon 08:46:39 AM 37.8294 -83.4569 251° West 397 457 36,300  Level Indianapolis Center
Mon 08:48:00 AM 37.7885 -83.6169 252° West  Level FlightAware Approximate
Mon 08:48:42 AM 37.6881 -83.7200 252° West 416 479 34,000  Level Indianapolis Center
Mon 08:50:00 AM 37.5902 -83.8259 221° Southwest  Level FlightAware Approximate
Mon 08:51:47 AM 37.5097 -84.0467 237° Southwest 375 432 34,000  Level Indianapolis Center
Mon 08:52:48 AM 37.4494 -84.1572 236° Southwest 383 441 34,000 -454 Level Indianapolis Center
Mon 08:54:00 AM 37.3793 -84.2773 234° Southwest  Level FlightAware Approximate
Mon 08:54:52 AM 37.3119 -84.4053 234° Southwest 403 464 32,600  Level Indianapolis Center
Mon 08:55:53 AM 37.2428 -84.5286 235° Southwest 426 490 31,400 -1,268 Descending Indianapolis Center
Mon 08:56:55 AM 37.1742 -84.6539 236° Southwest 436 502 30,000 -1,268 Descending Indianapolis Center
Mon 08:57:00 AM 37.2038 -84.5534 237° Southwest  Level FlightAware Approximate
Mon 08:57:56 AM 37.1039 -84.7778 235° Southwest 436 502 28,800  Level Indianapolis Center
Mon 08:58:58 AM 37.0281 -84.9125 235° Southwest 433 498 27,400 -1,355 Descending Indianapolis Center
Mon 09:00:00 AM 36.9589 -85.0369 235° Southwest 435 501 26,000 -1,364 Descending Indianapolis Center
Mon 09:01:32 AM 36.8467 -85.2289 234° Southwest 439 505 23,900 -1,268 Descending Memphis Center
Mon 09:02:03 AM 36.8175 -85.2836 236° Southwest 440 506 23,400 -1,174 Descending Indianapolis Center
Mon 09:03:04 AM 36.7497 -85.4053 235° Southwest 432 497 22,100 -933 Descending Indianapolis Center
Mon 09:03:33 AM 36.7150 -85.4781 239° Southwest 444 511 22,000 -1,548 Descending Memphis Center
Mon 09:05:08 AM 36.6311 -85.6542 239° Southwest 420 483 18,900 -2,423 Descending Indianapolis Center
Mon 09:06:09 AM 36.5689 -85.7831 239° Southwest 366 421 15,700 -2,683 Descending Indianapolis Center
Mon 09:07:11 AM 36.5283 -85.8717 240° Southwest 330 380 13,400 4,554 Descending Indianapolis Center
Mon 09:07:32 AM 36.5164 -85.9031 245° Southwest 329 379 22,000 -1,778 Climbing Memphis Center
Mon 09:08:32 AM 36.4714 -85.9906 237° Southwest 307 353 11,000 -5,500 Descending Memphis Center
Mon 09:09:32 AM 36.4289 -86.0806 240° Southwest 302 348 11,000  Level Memphis Center
Mon 09:11:18 AM 36.3469 -86.2492 239° Southwest 308 354 11,000 -663 Level Indianapolis Center
Mon 09:12:24 AM 36.3333 -86.3667 262° West 293 337 9,100 -1,429 Descending Nashville TRACON
Mon 09:13:24 AM 36.3500 -86.4667 282° West 287 330 8,000 -516 Descending Nashville TRACON
Mon 09:14:32 AM 36.3633 -86.5661 279° West 286 329 8,000 -328 Level Memphis Center
Mon 09:15:32 AM 36.3847 -86.6578 286° West 291 335 7,300 -1,250 Descending Memphis Center
Mon 09:16:32 AM 36.4039 -86.7419 286° West 273 314 5,500 -1,636 Descending Memphis Center
Mon 09:17:33 AM 36.4189 -86.8239 283° West 251 289 4,000 -1,250 Descending Memphis Center
Mon 09:18:32 AM 36.3631 -86.8469 198° South 170 196 3,000 -756 Descending Memphis Center
Mon 09:19:32 AM 36.3089 -86.8467 180° South 187 215 2,500 -500 Descending Memphis Center
Mon 09:20:32 AM 36.2553 -86.8619 193° South 198 228 2,000 -700 Descending Memphis Center
Mon 09:21:32 AM 36.2119 -86.8767 195° South 173 199 1,100 -900 Descending Memphis Center
Mon 09:23:00 AM 36.1824 -86.8867 202° Southwest  Level Estimated
Mon 09:30:00 AM 36.1824 -86.8867 202° Southwest  Level Estimated
Mon 09:31:00 AM 36.1824 -86.8867 202° Southwest  Level Estimated
Mon 09:32:00 AM 36.1824 -86.8867 202° Southwest  Level Estimated
Mon 09:33:00 AM 36.1824 -86.8867 202° Southwest  Level Estimated
Mon 09:34:00 AM 36.1824 -86.8867 202° Southwest  Level Estimated
Mon 09:35:00 AM 36.1824 -86.8867 202° Southwest  Level Estimated
Mon 09:36:00 AM 36.1824 -86.8867 202° Southwest  Level Estimated
Mon 09:37:00 AM 36.1824 -86.8867 202° Southwest  Level Estimated
Mon 09:38:00 AM 36.1824 -86.8867 202° Southwest  Level Estimated

Login

Don't have an account? Register now (free) for customized features, flight alerts, and more!